sensor_id;sensor_type;location;lat;lon;timestamp;P1;durP1;ratioP1;P2;durP2;ratioP2
29416;SDS011;28421;51.030;4.006;2023-03-08T00:01:37;18.17;;;10.52;;
29416;SDS011;28421;51.030;4.006;2023-03-08T00:04:03;18.13;;;10.15;;
29416;SDS011;28421;51.030;4.006;2023-03-08T00:06:28;17.77;;;10.55;;
29416;SDS011;28421;51.030;4.006;2023-03-08T00:08:54;19.70;;;10.93;;
29416;SDS011;28421;51.030;4.006;2023-03-08T00:11:21;19.77;;;11.82;;
29416;SDS011;28421;51.030;4.006;2023-03-08T00:13:46;24.73;;;11.15;;
29416;SDS011;28421;51.030;4.006;2023-03-08T00:16:12;18.25;;;10.93;;
29416;SDS011;28421;51.030;4.006;2023-03-08T00:18:38;20.17;;;11.45;;
29416;SDS011;28421;51.030;4.006;2023-03-08T00:21:05;15.10;;;9.77;;
29416;SDS011;28421;51.030;4.006;2023-03-08T00:23:35;19.35;;;11.27;;
29416;SDS011;28421;51.030;4.006;2023-03-08T00:26:00;15.98;;;9.85;;
29416;SDS011;28421;51.030;4.006;2023-03-08T00:28:25;16.10;;;10.77;;
29416;SDS011;28421;51.030;4.006;2023-03-08T00:30:58;22.92;;;12.02;;
29416;SDS011;28421;51.030;4.006;2023-03-08T05:35:51;13.25;;;7.50;;
29416;SDS011;28421;51.030;4.006;2023-03-08T05:38:20;12.52;;;7.25;;
29416;SDS011;28421;51.030;4.006;2023-03-08T05:40:48;11.98;;;7.55;;
29416;SDS011;28421;51.030;4.006;2023-03-08T05:43:15;14.90;;;8.57;;
29416;SDS011;28421;51.030;4.006;2023-03-08T05:45:41;15.90;;;7.68;;
29416;SDS011;28421;51.030;4.006;2023-03-08T05:48:06;12.23;;;6.93;;
29416;SDS011;28421;51.030;4.006;2023-03-08T05:50:36;14.13;;;6.20;;
29416;SDS011;28421;51.030;4.006;2023-03-08T05:53:03;15.65;;;7.75;;
29416;SDS011;28421;51.030;4.006;2023-03-08T05:55:28;17.45;;;7.07;;
29416;SDS011;28421;51.030;4.006;2023-03-08T05:57:55;10.90;;;7.30;;
29416;SDS011;28421;51.030;4.006;2023-03-08T06:00:21;10.00;;;6.07;;
29416;SDS011;28421;51.030;4.006;2023-03-08T06:02:52;10.52;;;6.40;;
29416;SDS011;28421;51.030;4.006;2023-03-08T06:05:19;10.98;;;6.63;;
29416;SDS011;28421;51.030;4.006;2023-03-08T06:07:47;11.02;;;5.85;;
29416;SDS011;28421;51.030;4.006;2023-03-08T06:10:14;11.80;;;6.20;;
29416;SDS011;28421;51.030;4.006;2023-03-08T06:12:40;10.15;;;6.25;;
29416;SDS011;28421;51.030;4.006;2023-03-08T06:15:08;11.25;;;6.18;;
29416;SDS011;28421;51.030;4.006;2023-03-08T06:17:35;10.43;;;6.85;;
29416;SDS011;28421;51.030;4.006;2023-03-08T06:20:01;9.30;;;5.72;;
29416;SDS011;28421;51.030;4.006;2023-03-08T06:22:29;11.32;;;6.20;;
29416;SDS011;28421;51.030;4.006;2023-03-08T06:24:55;13.10;;;6.40;;
29416;SDS011;28421;51.030;4.006;2023-03-08T06:27:27;13.32;;;7.68;;
29416;SDS011;28421;51.030;4.006;2023-03-08T06:29:55;7.95;;;5.22;;
29416;SDS011;28421;51.030;4.006;2023-03-08T06:32:21;11.13;;;6.70;;
29416;SDS011;28421;51.030;4.006;2023-03-08T06:34:47;10.38;;;7.00;;
29416;SDS011;28421;51.030;4.006;2023-03-08T06:37:12;10.60;;;6.18;;
29416;SDS011;28421;51.030;4.006;2023-03-08T06:39:39;10.70;;;6.50;;
29416;SDS011;28421;51.030;4.006;2023-03-08T06:42:05;10.38;;;6.18;;
29416;SDS011;28421;51.030;4.006;2023-03-08T06:44:31;15.25;;;7.88;;
29416;SDS011;28421;51.030;4.006;2023-03-08T06:46:57;9.70;;;6.38;;
29416;SDS011;28421;51.030;4.006;2023-03-08T06:49:23;12.13;;;6.80;;
29416;SDS011;28421;51.030;4.006;2023-03-08T06:51:49;12.98;;;7.05;;
29416;SDS011;28421;51.030;4.006;2023-03-08T06:54:14;15.48;;;7.85;;
29416;SDS011;28421;51.030;4.006;2023-03-08T06:56:42;15.63;;;9.32;;
29416;SDS011;28421;51.030;4.006;2023-03-08T06:59:10;16.20;;;7.93;;
29416;SDS011;28421;51.030;4.006;2023-03-08T07:01:36;13.98;;;7.95;;
29416;SDS011;28421;51.030;4.006;2023-03-08T07:04:02;14.30;;;7.97;;
29416;SDS011;28421;51.030;4.006;2023-03-08T07:06:27;14.23;;;8.65;;
29416;SDS011;28421;51.030;4.006;2023-03-08T07:08:53;11.93;;;8.02;;
29416;SDS011;28421;51.030;4.006;2023-03-08T07:11:18;14.18;;;8.80;;
29416;SDS011;28421;51.030;4.006;2023-03-08T07:13:44;12.10;;;7.45;;
29416;SDS011;28421;51.030;4.006;2023-03-08T07:16:10;11.60;;;8.00;;
29416;SDS011;28421;51.030;4.006;2023-03-08T07:18:37;10.57;;;7.38;;
29416;SDS011;28421;51.030;4.006;2023-03-08T07:21:02;16.80;;;8.52;;
29416;SDS011;28421;51.030;4.006;2023-03-08T07:23:28;15.02;;;8.32;;
29416;SDS011;28421;51.030;4.006;2023-03-08T07:25:54;9.60;;;6.68;;
29416;SDS011;28421;51.030;4.006;2023-03-08T07:28:20;13.70;;;8.13;;
29416;SDS011;28421;51.030;4.006;2023-03-08T07:30:47;12.77;;;7.07;;
29416;SDS011;28421;51.030;4.006;2023-03-08T07:33:14;13.48;;;8.18;;
29416;SDS011;28421;51.030;4.006;2023-03-08T07:35:39;12.35;;;7.60;;
29416;SDS011;28421;51.030;4.006;2023-03-08T07:38:05;11.60;;;7.25;;
29416;SDS011;28421;51.030;4.006;2023-03-08T07:40:30;12.73;;;7.90;;
29416;SDS011;28421;51.030;4.006;2023-03-08T07:42:56;11.55;;;7.70;;
29416;SDS011;28421;51.030;4.006;2023-03-08T07:45:47;12.52;;;6.68;;
29416;SDS011;28421;51.030;4.006;2023-03-08T07:48:12;9.88;;;7.32;;
29416;SDS011;28421;51.030;4.006;2023-03-08T07:50:38;10.38;;;6.63;;
29416;SDS011;28421;51.030;4.006;2023-03-08T07:53:03;11.77;;;6.57;;
29416;SDS011;28421;51.030;4.006;2023-03-08T07:55:29;11.25;;;7.25;;
29416;SDS011;28421;51.030;4.006;2023-03-08T07:57:54;11.82;;;6.93;;
29416;SDS011;28421;51.030;4.006;2023-03-08T08:00:20;11.45;;;7.50;;
29416;SDS011;28421;51.030;4.006;2023-03-08T08:02:45;10.07;;;7.15;;
29416;SDS011;28421;51.030;4.006;2023-03-08T08:05:12;12.77;;;7.75;;
29416;SDS011;28421;51.030;4.006;2023-03-08T08:07:37;11.60;;;7.70;;
29416;SDS011;28421;51.030;4.006;2023-03-08T08:10:03;10.80;;;6.68;;
29416;SDS011;28421;51.030;4.006;2023-03-08T08:12:29;14.27;;;7.78;;
29416;SDS011;28421;51.030;4.006;2023-03-08T08:14:54;13.18;;;8.00;;
29416;SDS011;28421;51.030;4.006;2023-03-08T08:17:20;14.43;;;7.88;;
29416;SDS011;28421;51.030;4.006;2023-03-08T08:19:46;16.02;;;9.27;;
29416;SDS011;28421;51.030;4.006;2023-03-08T08:22:12;11.38;;;7.15;;
29416;SDS011;28421;51.030;4.006;2023-03-08T08:24:38;12.32;;;7.45;;
29416;SDS011;28421;51.030;4.006;2023-03-08T08:27:04;11.55;;;7.28;;
29416;SDS011;28421;51.030;4.006;2023-03-08T08:29:30;12.68;;;6.82;;
29416;SDS011;28421;51.030;4.006;2023-03-08T08:31:55;13.32;;;8.48;;
29416;SDS011;28421;51.030;4.006;2023-03-08T08:34:21;14.63;;;9.07;;
29416;SDS011;28421;51.030;4.006;2023-03-08T08:36:47;14.57;;;9.38;;
29416;SDS011;28421;51.030;4.006;2023-03-08T08:39:12;13.98;;;8.88;;
29416;SDS011;28421;51.030;4.006;2023-03-08T08:41:38;16.85;;;8.00;;
29416;SDS011;28421;51.030;4.006;2023-03-08T08:44:03;16.30;;;9.38;;
29416;SDS011;28421;51.030;4.006;2023-03-08T08:46:29;14.85;;;8.70;;
29416;SDS011;28421;51.030;4.006;2023-03-08T08:48:58;13.95;;;8.23;;
29416;SDS011;28421;51.030;4.006;2023-03-08T08:51:24;15.93;;;8.85;;
29416;SDS011;28421;51.030;4.006;2023-03-08T08:53:50;13.70;;;8.70;;
29416;SDS011;28421;51.030;4.006;2023-03-08T08:56:20;18.30;;;10.13;;
29416;SDS011;28421;51.030;4.006;2023-03-08T08:58:47;13.48;;;8.38;;
29416;SDS011;28421;51.030;4.006;2023-03-08T09:01:13;16.00;;;9.65;;
29416;SDS011;28421;51.030;4.006;2023-03-08T09:03:40;16.35;;;9.30;;
29416;SDS011;28421;51.030;4.006;2023-03-08T09:06:05;16.13;;;8.80;;
29416;SDS011;28421;51.030;4.006;2023-03-08T09:08:31;17.10;;;9.52;;
29416;SDS011;28421;51.030;4.006;2023-03-08T09:11:00;15.75;;;9.07;;
29416;SDS011;28421;51.030;4.006;2023-03-08T09:13:30;15.98;;;9.27;;
29416;SDS011;28421;51.030;4.006;2023-03-08T09:15:56;14.07;;;8.50;;
29416;SDS011;28421;51.030;4.006;2023-03-08T09:18:22;18.05;;;9.05;;
29416;SDS011;28421;51.030;4.006;2023-03-08T09:20:47;15.68;;;8.75;;
29416;SDS011;28421;51.030;4.006;2023-03-08T09:23:13;14.30;;;8.38;;
29416;SDS011;28421;51.030;4.006;2023-03-08T09:25:38;15.50;;;9.55;;
29416;SDS011;28421;51.030;4.006;2023-03-08T09:28:04;19.88;;;10.85;;
29416;SDS011;28421;51.030;4.006;2023-03-08T09:30:29;19.63;;;10.55;;
29416;SDS011;28421;51.030;4.006;2023-03-08T09:32:57;17.70;;;10.30;;
29416;SDS011;28421;51.030;4.006;2023-03-08T09:35:23;17.67;;;10.60;;
29416;SDS011;28421;51.030;4.006;2023-03-08T09:37:49;17.40;;;10.35;;
29416;SDS011;28421;51.030;4.006;2023-03-08T09:40:23;16.92;;;9.75;;
29416;SDS011;28421;51.030;4.006;2023-03-08T09:42:50;19.92;;;12.00;;
29416;SDS011;28421;51.030;4.006;2023-03-08T09:45:18;20.75;;;12.15;;
29416;SDS011;28421;51.030;4.006;2023-03-08T09:48:03;24.58;;;12.13;;
29416;SDS011;28421;51.030;4.006;2023-03-08T09:56:26;25.00;;;14.07;;
29416;SDS011;28421;51.030;4.006;2023-03-08T09:59:38;23.50;;;13.65;;
29416;SDS011;28421;51.030;4.006;2023-03-08T10:12:53;25.88;;;13.40;;
29416;SDS011;28421;51.030;4.006;2023-03-08T10:15:21;20.13;;;11.15;;
29416;SDS011;28421;51.030;4.006;2023-03-08T10:17:55;20.00;;;11.90;;
29416;SDS011;28421;51.030;4.006;2023-03-08T10:20:34;19.75;;;11.23;;
29416;SDS011;28421;51.030;4.006;2023-03-08T10:23:17;17.13;;;10.65;;
29416;SDS011;28421;51.030;4.006;2023-03-08T10:25:44;16.55;;;10.00;;
29416;SDS011;28421;51.030;4.006;2023-03-08T10:28:13;16.48;;;9.77;;
29416;SDS011;28421;51.030;4.006;2023-03-08T10:30:59;19.17;;;10.60;;
29416;SDS011;28421;51.030;4.006;2023-03-08T10:33:32;18.52;;;10.20;;
29416;SDS011;28421;51.030;4.006;2023-03-08T10:36:44;19.75;;;10.65;;
29416;SDS011;28421;51.030;4.006;2023-03-08T10:41:26;20.65;;;12.48;;
29416;SDS011;28421;51.030;4.006;2023-03-08T10:43:54;14.40;;;9.90;;
29416;SDS011;28421;51.030;4.006;2023-03-08T10:46:22;18.55;;;11.13;;
29416;SDS011;28421;51.030;4.006;2023-03-08T10:48:49;18.15;;;11.15;;
29416;SDS011;28421;51.030;4.006;2023-03-08T10:51:37;20.48;;;11.93;;
29416;SDS011;28421;51.030;4.006;2023-03-08T10:54:03;22.60;;;12.88;;
29416;SDS011;28421;51.030;4.006;2023-03-08T10:56:37;21.35;;;12.15;;
29416;SDS011;28421;51.030;4.006;2023-03-08T10:59:22;20.58;;;12.73;;
29416;SDS011;28421;51.030;4.006;2023-03-08T11:02:01;24.65;;;13.85;;
29416;SDS011;28421;51.030;4.006;2023-03-08T11:04:56;21.15;;;12.00;;
29416;SDS011;28421;51.030;4.006;2023-03-08T11:07:30;25.20;;;13.98;;
29416;SDS011;28421;51.030;4.006;2023-03-08T11:12:37;24.38;;;13.13;;
29416;SDS011;28421;51.030;4.006;2023-03-08T11:15:11;27.17;;;15.35;;
29416;SDS011;28421;51.030;4.006;2023-03-08T11:20:48;26.63;;;14.95;;
29416;SDS011;28421;51.030;4.006;2023-03-08T11:23:21;23.52;;;13.85;;
29416;SDS011;28421;51.030;4.006;2023-03-08T11:26:10;28.88;;;15.38;;
29416;SDS011;28421;51.030;4.006;2023-03-08T11:31:32;23.23;;;14.63;;
29416;SDS011;28421;51.030;4.006;2023-03-08T11:34:07;32.50;;;18.85;;
29416;SDS011;28421;51.030;4.006;2023-03-08T11:37:19;28.15;;;15.93;;
29416;SDS011;28421;51.030;4.006;2023-03-08T11:39:52;29.65;;;15.40;;
29416;SDS011;28421;51.030;4.006;2023-03-08T11:42:26;32.65;;;17.85;;
29416;SDS011;28421;51.030;4.006;2023-03-08T11:45:01;29.77;;;15.27;;
29416;SDS011;28421;51.030;4.006;2023-03-08T11:50:23;33.33;;;18.00;;
29416;SDS011;28421;51.030;4.006;2023-03-08T11:58:37;32.47;;;17.77;;
29416;SDS011;28421;51.030;4.006;2023-03-08T12:01:22;39.28;;;21.50;;
29416;SDS011;28421;51.030;4.006;2023-03-08T12:03:52;43.05;;;22.10;;
29416;SDS011;28421;51.030;4.006;2023-03-08T12:06:23;38.30;;;20.38;;
29416;SDS011;28421;51.030;4.006;2023-03-08T12:09:03;40.45;;;20.48;;
29416;SDS011;28421;51.030;4.006;2023-03-08T12:11:45;39.60;;;20.25;;
29416;SDS011;28421;51.030;4.006;2023-03-08T12:14:35;36.63;;;18.95;;
29416;SDS011;28421;51.030;4.006;2023-03-08T12:17:29;38.25;;;20.63;;
29416;SDS011;28421;51.030;4.006;2023-03-08T12:19:59;33.72;;;20.00;;
29416;SDS011;28421;51.030;4.006;2023-03-08T12:22:30;37.42;;;20.55;;
29416;SDS011;28421;51.030;4.006;2023-03-08T12:33:04;37.80;;;21.15;;
29416;SDS011;28421;51.030;4.006;2023-03-08T12:35:34;34.30;;;20.23;;
29416;SDS011;28421;51.030;4.006;2023-03-08T12:38:04;38.65;;;21.85;;
29416;SDS011;28421;51.030;4.006;2023-03-08T12:45:38;37.70;;;20.80;;
29416;SDS011;28421;51.030;4.006;2023-03-08T12:50:33;45.47;;;23.63;;
29416;SDS011;28421;51.030;4.006;2023-03-08T12:53:24;42.10;;;22.88;;
29416;SDS011;28421;51.030;4.006;2023-03-08T12:58:36;44.13;;;23.33;;
29416;SDS011;28421;51.030;4.006;2023-03-08T13:01:34;44.67;;;24.33;;
29416;SDS011;28421;51.030;4.006;2023-03-08T13:10:18;48.38;;;25.45;;
29416;SDS011;28421;51.030;4.006;2023-03-08T13:15:43;55.50;;;26.25;;
29416;SDS011;28421;51.030;4.006;2023-03-08T13:23:26;51.90;;;26.33;;
29416;SDS011;28421;51.030;4.006;2023-03-08T13:28:56;46.67;;;24.80;;
29416;SDS011;28421;51.030;4.006;2023-03-08T13:31:22;47.15;;;25.75;;
29416;SDS011;28421;51.030;4.006;2023-03-08T13:33:53;51.70;;;26.95;;
29416;SDS011;28421;51.030;4.006;2023-03-08T13:36:21;51.42;;;27.08;;
29416;SDS011;28421;51.030;4.006;2023-03-08T13:41:38;45.15;;;24.00;;
29416;SDS011;28421;51.030;4.006;2023-03-08T13:44:13;46.35;;;23.42;;
29416;SDS011;28421;51.030;4.006;2023-03-08T13:46:40;43.47;;;22.48;;
29416;SDS011;28421;51.030;4.006;2023-03-08T13:51:45;47.45;;;24.35;;
29416;SDS011;28421;51.030;4.006;2023-03-08T13:54:13;45.78;;;24.27;;
29416;SDS011;28421;51.030;4.006;2023-03-08T13:56:45;50.20;;;27.63;;
29416;SDS011;28421;51.030;4.006;2023-03-08T13:59:20;50.30;;;27.55;;
29416;SDS011;28421;51.030;4.006;2023-03-08T14:01:47;46.60;;;24.20;;
29416;SDS011;28421;51.030;4.006;2023-03-08T14:04:21;48.95;;;24.92;;
29416;SDS011;28421;51.030;4.006;2023-03-08T14:06:49;47.13;;;25.38;;
29416;SDS011;28421;51.030;4.006;2023-03-08T14:09:19;47.53;;;24.02;;
29416;SDS011;28421;51.030;4.006;2023-03-08T14:11:46;54.88;;;25.58;;
29416;SDS011;28421;51.030;4.006;2023-03-08T14:14:24;48.05;;;26.02;;
29416;SDS011;28421;51.030;4.006;2023-03-08T14:16:53;44.75;;;23.35;;
29416;SDS011;28421;51.030;4.006;2023-03-08T14:21:59;49.78;;;26.73;;
29416;SDS011;28421;51.030;4.006;2023-03-08T14:24:28;47.33;;;25.38;;
29416;SDS011;28421;51.030;4.006;2023-03-08T14:29:48;49.30;;;26.30;;
29416;SDS011;28421;51.030;4.006;2023-03-08T14:34:40;49.00;;;25.30;;
29416;SDS011;28421;51.030;4.006;2023-03-08T14:37:21;58.53;;;28.60;;
29416;SDS011;28421;51.030;4.006;2023-03-08T14:39:48;50.17;;;26.35;;
29416;SDS011;28421;51.030;4.006;2023-03-08T14:42:22;52.15;;;27.52;;
29416;SDS011;28421;51.030;4.006;2023-03-08T14:44:55;59.78;;;30.73;;
29416;SDS011;28421;51.030;4.006;2023-03-08T14:47:26;53.75;;;27.73;;
29416;SDS011;28421;51.030;4.006;2023-03-08T14:50:14;57.92;;;28.50;;
29416;SDS011;28421;51.030;4.006;2023-03-08T14:52:44;58.10;;;29.27;;
29416;SDS011;28421;51.030;4.006;2023-03-08T14:58:14;60.78;;;27.38;;
29416;SDS011;28421;51.030;4.006;2023-03-08T15:00:49;63.95;;;30.35;;
29416;SDS011;28421;51.030;4.006;2023-03-08T15:03:15;56.92;;;28.95;;
29416;SDS011;28421;51.030;4.006;2023-03-08T15:05:41;52.00;;;27.08;;
29416;SDS011;28421;51.030;4.006;2023-03-08T15:08:07;57.08;;;29.00;;
29416;SDS011;28421;51.030;4.006;2023-03-08T15:10:36;54.53;;;26.48;;
29416;SDS011;28421;51.030;4.006;2023-03-08T15:13:04;59.47;;;27.35;;
29416;SDS011;28421;51.030;4.006;2023-03-08T15:15:32;52.25;;;28.17;;
29416;SDS011;28421;51.030;4.006;2023-03-08T15:17:57;53.72;;;27.25;;
29416;SDS011;28421;51.030;4.006;2023-03-08T15:20:23;56.08;;;28.42;;
29416;SDS011;28421;51.030;4.006;2023-03-08T15:22:53;48.70;;;25.40;;
29416;SDS011;28421;51.030;4.006;2023-03-08T15:25:26;59.90;;;28.02;;
29416;SDS011;28421;51.030;4.006;2023-03-08T15:27:53;53.47;;;26.55;;
29416;SDS011;28421;51.030;4.006;2023-03-08T15:30:21;52.03;;;27.45;;
29416;SDS011;28421;51.030;4.006;2023-03-08T15:32:50;59.30;;;27.45;;
29416;SDS011;28421;51.030;4.006;2023-03-08T15:35:16;57.20;;;26.85;;
29416;SDS011;28421;51.030;4.006;2023-03-08T15:37:54;49.85;;;26.23;;
29416;SDS011;28421;51.030;4.006;2023-03-08T15:40:21;55.40;;;27.02;;
29416;SDS011;28421;51.030;4.006;2023-03-08T15:42:48;51.53;;;27.48;;
29416;SDS011;28421;51.030;4.006;2023-03-08T15:45:14;51.35;;;27.30;;
29416;SDS011;28421;51.030;4.006;2023-03-08T15:47:40;52.25;;;23.88;;
29416;SDS011;28421;51.030;4.006;2023-03-08T15:50:10;47.65;;;25.58;;
29416;SDS011;28421;51.030;4.006;2023-03-08T15:52:41;54.08;;;28.13;;
29416;SDS011;28421;51.030;4.006;2023-03-08T15:55:08;50.35;;;25.98;;
29416;SDS011;28421;51.030;4.006;2023-03-08T15:57:35;52.70;;;23.95;;
29416;SDS011;28421;51.030;4.006;2023-03-08T16:00:02;52.97;;;26.02;;
29416;SDS011;28421;51.030;4.006;2023-03-08T16:02:36;45.85;;;23.05;;
29416;SDS011;28421;51.030;4.006;2023-03-08T16:05:02;50.10;;;23.67;;
29416;SDS011;28421;51.030;4.006;2023-03-08T16:07:29;47.95;;;23.85;;
29416;SDS011;28421;51.030;4.006;2023-03-08T16:09:54;59.13;;;27.75;;
29416;SDS011;28421;51.030;4.006;2023-03-08T16:12:20;45.28;;;23.83;;
29416;SDS011;28421;51.030;4.006;2023-03-08T16:14:46;49.80;;;25.30;;
29416;SDS011;28421;51.030;4.006;2023-03-08T16:17:12;50.75;;;26.65;;
29416;SDS011;28421;51.030;4.006;2023-03-08T16:19:38;42.97;;;23.25;;
29416;SDS011;28421;51.030;4.006;2023-03-08T16:22:03;44.78;;;24.08;;
29416;SDS011;28421;51.030;4.006;2023-03-08T16:24:29;49.33;;;26.83;;
29416;SDS011;28421;51.030;4.006;2023-03-08T16:26:55;45.28;;;24.10;;
29416;SDS011;28421;51.030;4.006;2023-03-08T16:29:21;47.90;;;24.55;;
29416;SDS011;28421;51.030;4.006;2023-03-08T16:31:47;49.17;;;25.33;;
29416;SDS011;28421;51.030;4.006;2023-03-08T16:34:13;52.72;;;25.08;;
29416;SDS011;28421;51.030;4.006;2023-03-08T16:36:41;53.42;;;24.48;;
29416;SDS011;28421;51.030;4.006;2023-03-08T16:39:06;52.05;;;25.05;;
29416;SDS011;28421;51.030;4.006;2023-03-08T16:41:33;43.88;;;23.55;;
29416;SDS011;28421;51.030;4.006;2023-03-08T16:43:59;46.90;;;23.67;;
29416;SDS011;28421;51.030;4.006;2023-03-08T16:46:25;44.58;;;23.58;;
29416;SDS011;28421;51.030;4.006;2023-03-08T16:48:50;48.97;;;23.33;;
29416;SDS011;28421;51.030;4.006;2023-03-08T16:51:19;45.42;;;23.95;;
29416;SDS011;28421;51.030;4.006;2023-03-08T16:53:46;45.28;;;22.92;;
29416;SDS011;28421;51.030;4.006;2023-03-08T16:56:20;44.58;;;23.92;;
29416;SDS011;28421;51.030;4.006;2023-03-08T16:58:49;42.00;;;22.48;;
29416;SDS011;28421;51.030;4.006;2023-03-08T17:01:16;43.83;;;23.40;;
29416;SDS011;28421;51.030;4.006;2023-03-08T17:03:42;48.58;;;23.30;;
29416;SDS011;28421;51.030;4.006;2023-03-08T17:06:09;49.85;;;23.58;;
29416;SDS011;28421;51.030;4.006;2023-03-08T17:08:36;46.60;;;23.55;;
29416;SDS011;28421;51.030;4.006;2023-03-08T17:11:02;44.10;;;23.10;;
29416;SDS011;28421;51.030;4.006;2023-03-08T17:13:29;40.35;;;20.15;;
29416;SDS011;28421;51.030;4.006;2023-03-08T17:15:55;39.47;;;20.20;;
29416;SDS011;28421;51.030;4.006;2023-03-08T17:18:20;39.25;;;19.35;;
29416;SDS011;28421;51.030;4.006;2023-03-08T17:20:48;40.65;;;21.38;;
29416;SDS011;28421;51.030;4.006;2023-03-08T17:23:14;36.97;;;20.35;;
29416;SDS011;28421;51.030;4.006;2023-03-08T17:25:39;40.03;;;22.15;;
29416;SDS011;28421;51.030;4.006;2023-03-08T17:28:05;36.58;;;19.02;;
29416;SDS011;28421;51.030;4.006;2023-03-08T17:30:31;37.47;;;20.55;;
29416;SDS011;28421;51.030;4.006;2023-03-08T17:32:57;38.53;;;20.05;;
29416;SDS011;28421;51.030;4.006;2023-03-08T17:35:23;39.90;;;18.90;;
29416;SDS011;28421;51.030;4.006;2023-03-08T17:37:49;41.75;;;21.25;;
29416;SDS011;28421;51.030;4.006;2023-03-08T17:40:16;48.75;;;22.65;;
29416;SDS011;28421;51.030;4.006;2023-03-08T17:42:43;42.63;;;21.85;;
29416;SDS011;28421;51.030;4.006;2023-03-08T17:45:11;43.60;;;20.40;;
29416;SDS011;28421;51.030;4.006;2023-03-08T17:47:38;43.92;;;20.48;;
29416;SDS011;28421;51.030;4.006;2023-03-08T17:50:04;37.95;;;20.70;;
29416;SDS011;28421;51.030;4.006;2023-03-08T17:52:30;42.72;;;20.52;;
29416;SDS011;28421;51.030;4.006;2023-03-08T17:54:56;37.28;;;19.95;;
29416;SDS011;28421;51.030;4.006;2023-03-08T17:57:22;42.75;;;22.30;;
29416;SDS011;28421;51.030;4.006;2023-03-08T17:59:47;42.15;;;22.35;;
29416;SDS011;28421;51.030;4.006;2023-03-08T18:02:13;43.10;;;19.95;;
29416;SDS011;28421;51.030;4.006;2023-03-08T18:04:47;43.88;;;21.27;;
29416;SDS011;28421;51.030;4.006;2023-03-08T18:07:14;41.77;;;21.03;;
29416;SDS011;28421;51.030;4.006;2023-03-08T18:09:44;36.67;;;19.63;;
29416;SDS011;28421;51.030;4.006;2023-03-08T18:12:10;41.20;;;21.58;;
29416;SDS011;28421;51.030;4.006;2023-03-08T18:14:36;46.85;;;22.20;;
29416;SDS011;28421;51.030;4.006;2023-03-08T18:17:02;44.60;;;23.77;;
29416;SDS011;28421;51.030;4.006;2023-03-08T18:19:28;40.58;;;21.83;;
29416;SDS011;28421;51.030;4.006;2023-03-08T18:21:53;33.67;;;19.00;;
29416;SDS011;28421;51.030;4.006;2023-03-08T18:24:21;40.17;;;20.63;;
29416;SDS011;28421;51.030;4.006;2023-03-08T18:26:47;41.95;;;21.55;;
29416;SDS011;28421;51.030;4.006;2023-03-08T18:29:13;40.17;;;20.88;;
29416;SDS011;28421;51.030;4.006;2023-03-08T18:31:38;45.75;;;21.80;;
29416;SDS011;28421;51.030;4.006;2023-03-08T18:34:05;47.20;;;23.30;;
29416;SDS011;28421;51.030;4.006;2023-03-08T18:36:31;41.70;;;22.33;;
29416;SDS011;28421;51.030;4.006;2023-03-08T18:38:58;43.30;;;20.92;;
29416;SDS011;28421;51.030;4.006;2023-03-08T18:41:24;45.85;;;22.67;;
29416;SDS011;28421;51.030;4.006;2023-03-08T18:43:53;47.53;;;22.65;;
29416;SDS011;28421;51.030;4.006;2023-03-08T18:46:19;38.42;;;20.58;;
29416;SDS011;28421;51.030;4.006;2023-03-08T18:48:52;42.03;;;20.38;;
29416;SDS011;28421;51.030;4.006;2023-03-08T18:51:19;39.00;;;19.88;;
29416;SDS011;28421;51.030;4.006;2023-03-08T18:53:44;37.97;;;19.58;;
29416;SDS011;28421;51.030;4.006;2023-03-08T18:56:10;38.10;;;19.95;;
29416;SDS011;28421;51.030;4.006;2023-03-08T18:58:35;38.78;;;20.67;;
29416;SDS011;28421;51.030;4.006;2023-03-08T19:01:01;40.88;;;19.58;;
29416;SDS011;28421;51.030;4.006;2023-03-08T19:03:35;36.53;;;20.07;;
29416;SDS011;28421;51.030;4.006;2023-03-08T19:06:00;42.88;;;22.35;;
29416;SDS011;28421;51.030;4.006;2023-03-08T19:08:27;44.78;;;22.85;;
29416;SDS011;28421;51.030;4.006;2023-03-08T19:10:53;47.08;;;23.10;;
29416;SDS011;28421;51.030;4.006;2023-03-08T19:13:23;50.03;;;24.92;;
29416;SDS011;28421;51.030;4.006;2023-03-08T19:15:48;38.13;;;20.48;;
29416;SDS011;28421;51.030;4.006;2023-03-08T19:18:14;45.05;;;21.38;;
29416;SDS011;28421;51.030;4.006;2023-03-08T19:20:40;41.17;;;20.23;;
29416;SDS011;28421;51.030;4.006;2023-03-08T19:23:06;42.60;;;19.67;;
29416;SDS011;28421;51.030;4.006;2023-03-08T19:25:36;42.33;;;21.55;;
29416;SDS011;28421;51.030;4.006;2023-03-08T19:28:22;43.92;;;21.40;;
29416;SDS011;28421;51.030;4.006;2023-03-08T19:30:47;44.28;;;23.08;;
29416;SDS011;28421;51.030;4.006;2023-03-08T19:33:13;44.92;;;23.10;;
29416;SDS011;28421;51.030;4.006;2023-03-08T19:35:38;44.03;;;21.55;;
29416;SDS011;28421;51.030;4.006;2023-03-08T19:38:04;46.70;;;21.55;;
29416;SDS011;28421;51.030;4.006;2023-03-08T19:40:29;45.33;;;23.23;;
29416;SDS011;28421;51.030;4.006;2023-03-08T19:42:57;47.47;;;25.33;;
29416;SDS011;28421;51.030;4.006;2023-03-08T19:45:25;39.55;;;20.23;;
29416;SDS011;28421;51.030;4.006;2023-03-08T19:47:51;45.78;;;24.27;;
29416;SDS011;28421;51.030;4.006;2023-03-08T19:50:17;45.47;;;21.45;;
29416;SDS011;28421;51.030;4.006;2023-03-08T19:52:42;44.00;;;20.90;;
29416;SDS011;28421;51.030;4.006;2023-03-08T19:55:08;37.30;;;19.48;;
29416;SDS011;28421;51.030;4.006;2023-03-08T19:57:43;37.20;;;18.90;;
29416;SDS011;28421;51.030;4.006;2023-03-08T20:00:09;48.60;;;21.73;;
29416;SDS011;28421;51.030;4.006;2023-03-08T20:02:38;45.15;;;21.67;;
29416;SDS011;28421;51.030;4.006;2023-03-08T20:05:04;46.50;;;22.00;;
29416;SDS011;28421;51.030;4.006;2023-03-08T20:07:33;34.67;;;18.25;;
29416;SDS011;28421;51.030;4.006;2023-03-08T20:09:58;38.65;;;19.75;;
29416;SDS011;28421;51.030;4.006;2023-03-08T20:12:24;43.78;;;21.95;;
29416;SDS011;28421;51.030;4.006;2023-03-08T20:14:52;44.20;;;19.73;;
29416;SDS011;28421;51.030;4.006;2023-03-08T20:17:17;41.33;;;20.02;;
29416;SDS011;28421;51.030;4.006;2023-03-08T20:19:43;41.75;;;18.58;;
29416;SDS011;28421;51.030;4.006;2023-03-08T20:22:08;42.75;;;21.17;;
29416;SDS011;28421;51.030;4.006;2023-03-08T20:24:34;40.78;;;19.25;;
29416;SDS011;28421;51.030;4.006;2023-03-08T20:27:00;46.05;;;20.05;;
29416;SDS011;28421;51.030;4.006;2023-03-08T20:29:25;41.15;;;20.65;;
29416;SDS011;28421;51.030;4.006;2023-03-08T20:31:51;46.30;;;22.35;;
29416;SDS011;28421;51.030;4.006;2023-03-08T20:34:17;51.17;;;22.45;;
29416;SDS011;28421;51.030;4.006;2023-03-08T20:36:42;40.92;;;20.80;;
29416;SDS011;28421;51.030;4.006;2023-03-08T20:39:08;40.00;;;20.70;;
29416;SDS011;28421;51.030;4.006;2023-03-08T20:41:33;44.45;;;21.33;;
29416;SDS011;28421;51.030;4.006;2023-03-08T20:43:59;44.17;;;17.90;;
29416;SDS011;28421;51.030;4.006;2023-03-08T20:46:26;37.17;;;19.45;;
29416;SDS011;28421;51.030;4.006;2023-03-08T20:48:55;40.47;;;20.10;;
29416;SDS011;28421;51.030;4.006;2023-03-08T20:51:21;45.10;;;20.52;;
29416;SDS011;28421;51.030;4.006;2023-03-08T20:53:58;46.20;;;20.02;;
29416;SDS011;28421;51.030;4.006;2023-03-08T20:56:24;36.25;;;17.52;;
29416;SDS011;28421;51.030;4.006;2023-03-08T20:58:50;43.47;;;20.10;;
29416;SDS011;28421;51.030;4.006;2023-03-08T21:01:23;37.35;;;18.20;;
29416;SDS011;28421;51.030;4.006;2023-03-08T21:03:50;40.08;;;18.00;;
29416;SDS011;28421;51.030;4.006;2023-03-08T21:06:17;44.10;;;21.15;;